sensor_id;sensor_type;location;lat;lon;timestamp;P1;durP1;ratioP1;P2;durP2;ratioP2
80694;SDS011;70059;42.702;23.312;2023-09-19T00:00:36;11.48;;;9.98;;
80694;SDS011;70059;42.702;23.312;2023-09-19T00:03:02;11.02;;;10.13;;
80694;SDS011;70059;42.702;23.312;2023-09-19T00:05:30;11.60;;;10.60;;
80694;SDS011;70059;42.702;23.312;2023-09-19T00:08:00;11.43;;;10.33;;
80694;SDS011;70059;42.702;23.312;2023-09-19T00:10:29;11.27;;;10.18;;
80694;SDS011;70059;42.702;23.312;2023-09-19T00:13:02;11.85;;;10.85;;
80694;SDS011;70059;42.702;23.312;2023-09-19T00:15:38;11.13;;;10.13;;
80694;SDS011;70059;42.702;23.312;2023-09-19T00:18:05;11.93;;;10.50;;
80694;SDS011;70059;42.702;23.312;2023-09-19T00:20:32;11.85;;;10.77;;
80694;SDS011;70059;42.702;23.312;2023-09-19T00:23:00;12.18;;;10.60;;
80694;SDS011;70059;42.702;23.312;2023-09-19T00:25:34;11.52;;;10.52;;
80694;SDS011;70059;42.702;23.312;2023-09-19T00:28:00;11.40;;;10.38;;
80694;SDS011;70059;42.702;23.312;2023-09-19T00:30:26;11.07;;;10.10;;
80694;SDS011;70059;42.702;23.312;2023-09-19T00:32:52;13.77;;;11.45;;
80694;SDS011;70059;42.702;23.312;2023-09-19T00:35:18;11.45;;;10.43;;
80694;SDS011;70059;42.702;23.312;2023-09-19T00:37:44;11.70;;;10.43;;
80694;SDS011;70059;42.702;23.312;2023-09-19T00:40:10;11.88;;;10.43;;
80694;SDS011;70059;42.702;23.312;2023-09-19T00:42:41;11.68;;;10.55;;
80694;SDS011;70059;42.702;23.312;2023-09-19T00:45:07;10.85;;;9.95;;
80694;SDS011;70059;42.702;23.312;2023-09-19T00:47:40;11.32;;;10.23;;
80694;SDS011;70059;42.702;23.312;2023-09-19T00:50:11;11.27;;;10.27;;
80694;SDS011;70059;42.702;23.312;2023-09-19T00:52:39;11.35;;;10.30;;
80694;SDS011;70059;42.702;23.312;2023-09-19T00:55:07;11.75;;;10.43;;
80694;SDS011;70059;42.702;23.312;2023-09-19T00:57:34;11.70;;;10.57;;
80694;SDS011;70059;42.702;23.312;2023-09-19T01:00:03;12.25;;;11.05;;
80694;SDS011;70059;42.702;23.312;2023-09-19T01:02:33;12.57;;;11.27;;
80694;SDS011;70059;42.702;23.312;2023-09-19T01:04:59;11.40;;;10.30;;
80694;SDS011;70059;42.702;23.312;2023-09-19T01:07:26;11.77;;;10.52;;
80694;SDS011;70059;42.702;23.312;2023-09-19T01:09:55;11.18;;;10.27;;
80694;SDS011;70059;42.702;23.312;2023-09-19T01:12:28;12.40;;;10.60;;
80694;SDS011;70059;42.702;23.312;2023-09-19T01:15:11;12.32;;;11.23;;
80694;SDS011;70059;42.702;23.312;2023-09-19T01:18:02;11.95;;;10.73;;
80694;SDS011;70059;42.702;23.312;2023-09-19T01:20:40;12.00;;;10.88;;
80694;SDS011;70059;42.702;23.312;2023-09-19T01:24:17;11.55;;;10.32;;
80694;SDS011;70059;42.702;23.312;2023-09-19T01:26:34;12.35;;;11.25;;
80694;SDS011;70059;42.702;23.312;2023-09-19T01:29:39;11.98;;;10.77;;
80694;SDS011;70059;42.702;23.312;2023-09-19T01:32:04;12.10;;;10.90;;
80694;SDS011;70059;42.702;23.312;2023-09-19T01:34:44;12.10;;;10.98;;
80694;SDS011;70059;42.702;23.312;2023-09-19T01:37:15;12.73;;;11.55;;
80694;SDS011;70059;42.702;23.312;2023-09-19T01:39:49;12.65;;;11.45;;
80694;SDS011;70059;42.702;23.312;2023-09-19T01:42:28;13.02;;;11.57;;
80694;SDS011;70059;42.702;23.312;2023-09-19T01:45:04;12.63;;;11.48;;
80694;SDS011;70059;42.702;23.312;2023-09-19T01:47:46;12.40;;;11.30;;
80694;SDS011;70059;42.702;23.312;2023-09-19T01:53:19;13.35;;;12.02;;
80694;SDS011;70059;42.702;23.312;2023-09-19T01:55:50;12.82;;;11.13;;
80694;SDS011;70059;42.702;23.312;2023-09-19T01:58:20;13.18;;;11.88;;
80694;SDS011;70059;42.702;23.312;2023-09-19T02:01:10;14.07;;;12.23;;
80694;SDS011;70059;42.702;23.312;2023-09-19T02:03:41;12.95;;;11.70;;
80694;SDS011;70059;42.702;23.312;2023-09-19T02:06:13;13.13;;;11.82;;
80694;SDS011;70059;42.702;23.312;2023-09-19T02:08:43;13.57;;;12.27;;
80694;SDS011;70059;42.702;23.312;2023-09-19T02:11:12;13.23;;;11.82;;
80694;SDS011;70059;42.702;23.312;2023-09-19T02:13:38;12.55;;;11.25;;
80694;SDS011;70059;42.702;23.312;2023-09-19T02:16:05;13.23;;;11.93;;
80694;SDS011;70059;42.702;23.312;2023-09-19T02:18:32;14.00;;;12.60;;
80694;SDS011;70059;42.702;23.312;2023-09-19T02:21:00;15.15;;;12.43;;
80694;SDS011;70059;42.702;23.312;2023-09-19T02:23:26;13.05;;;11.75;;
80694;SDS011;70059;42.702;23.312;2023-09-19T02:25:53;14.38;;;12.50;;
80694;SDS011;70059;42.702;23.312;2023-09-19T02:28:19;13.60;;;12.40;;
80694;SDS011;70059;42.702;23.312;2023-09-19T02:30:47;13.23;;;11.80;;
80694;SDS011;70059;42.702;23.312;2023-09-19T02:33:14;14.38;;;12.13;;
80694;SDS011;70059;42.702;23.312;2023-09-19T02:35:40;13.52;;;12.13;;
80694;SDS011;70059;42.702;23.312;2023-09-19T02:38:05;14.45;;;12.85;;
80694;SDS011;70059;42.702;23.312;2023-09-19T02:40:36;17.27;;;13.07;;
80694;SDS011;70059;42.702;23.312;2023-09-19T02:43:02;14.65;;;13.15;;
80694;SDS011;70059;42.702;23.312;2023-09-19T02:45:29;14.15;;;12.75;;
80694;SDS011;70059;42.702;23.312;2023-09-19T02:47:55;14.38;;;12.95;;
80694;SDS011;70059;42.702;23.312;2023-09-19T02:50:22;13.45;;;12.05;;
80694;SDS011;70059;42.702;23.312;2023-09-19T02:52:48;14.35;;;12.43;;
80694;SDS011;70059;42.702;23.312;2023-09-19T02:55:14;11.95;;;10.82;;
80694;SDS011;70059;42.702;23.312;2023-09-19T02:57:46;13.40;;;11.95;;
80694;SDS011;70059;42.702;23.312;2023-09-19T03:00:16;13.82;;;12.43;;
80694;SDS011;70059;42.702;23.312;2023-09-19T03:02:45;13.00;;;11.80;;
80694;SDS011;70059;42.702;23.312;2023-09-19T03:05:21;13.10;;;11.80;;
80694;SDS011;70059;42.702;23.312;2023-09-19T03:07:51;13.02;;;11.77;;
80694;SDS011;70059;42.702;23.312;2023-09-19T03:10:17;13.02;;;11.20;;
80694;SDS011;70059;42.702;23.312;2023-09-19T03:12:43;12.70;;;11.50;;
80694;SDS011;70059;42.702;23.312;2023-09-19T03:15:09;13.48;;;12.05;;
80694;SDS011;70059;42.702;23.312;2023-09-19T03:17:35;14.18;;;11.20;;
80694;SDS011;70059;42.702;23.312;2023-09-19T03:20:01;16.13;;;12.63;;
80694;SDS011;70059;42.702;23.312;2023-09-19T03:22:29;14.32;;;12.75;;
80694;SDS011;70059;42.702;23.312;2023-09-19T03:24:55;13.40;;;12.05;;
80694;SDS011;70059;42.702;23.312;2023-09-19T03:27:21;13.00;;;11.80;;
80694;SDS011;70059;42.702;23.312;2023-09-19T03:29:47;20.85;;;13.32;;
80694;SDS011;70059;42.702;23.312;2023-09-19T03:32:13;14.80;;;13.30;;
80694;SDS011;70059;42.702;23.312;2023-09-19T03:34:38;14.38;;;12.75;;
80694;SDS011;70059;42.702;23.312;2023-09-19T03:37:09;14.73;;;13.15;;
80694;SDS011;70059;42.702;23.312;2023-09-19T03:39:35;53.15;;;36.65;;
80694;SDS011;70059;42.702;23.312;2023-09-19T03:42:01;53.10;;;39.63;;
80694;SDS011;70059;42.702;23.312;2023-09-19T03:44:29;34.95;;;26.70;;
80694;SDS011;70059;42.702;23.312;2023-09-19T03:46:55;20.05;;;16.52;;
80694;SDS011;70059;42.702;23.312;2023-09-19T03:49:22;19.25;;;15.30;;
80694;SDS011;70059;42.702;23.312;2023-09-19T03:51:47;16.60;;;14.68;;
80694;SDS011;70059;42.702;23.312;2023-09-19T03:54:13;15.82;;;14.18;;
80694;SDS011;70059;42.702;23.312;2023-09-19T03:56:39;14.73;;;13.20;;
80694;SDS011;70059;42.702;23.312;2023-09-19T03:59:05;14.93;;;13.32;;
80694;SDS011;70059;42.702;23.312;2023-09-19T04:03:58;14.07;;;12.65;;
80694;SDS011;70059;42.702;23.312;2023-09-19T04:06:33;14.77;;;13.32;;
80694;SDS011;70059;42.702;23.312;2023-09-19T04:09:00;15.27;;;13.77;;
80694;SDS011;70059;42.702;23.312;2023-09-19T04:13:54;16.52;;;14.20;;
80694;SDS011;70059;42.702;23.312;2023-09-19T04:16:20;15.23;;;13.73;;
80694;SDS011;70059;42.702;23.312;2023-09-19T04:18:46;16.80;;;13.63;;
80694;SDS011;70059;42.702;23.312;2023-09-19T04:21:12;21.20;;;14.20;;
80694;SDS011;70059;42.702;23.312;2023-09-19T04:23:38;18.90;;;13.45;;
80694;SDS011;70059;42.702;23.312;2023-09-19T04:26:04;19.48;;;15.68;;
80694;SDS011;70059;42.702;23.312;2023-09-19T04:28:32;19.83;;;13.10;;
80694;SDS011;70059;42.702;23.312;2023-09-19T04:31:03;17.05;;;13.30;;
80694;SDS011;70059;42.702;23.312;2023-09-19T04:33:29;18.33;;;13.20;;
80694;SDS011;70059;42.702;23.312;2023-09-19T04:35:55;19.90;;;14.48;;
80694;SDS011;70059;42.702;23.312;2023-09-19T04:38:21;17.60;;;14.10;;
80694;SDS011;70059;42.702;23.312;2023-09-19T04:40:47;13.50;;;12.10;;
80694;SDS011;70059;42.702;23.312;2023-09-19T04:43:14;13.50;;;12.20;;
80694;SDS011;70059;42.702;23.312;2023-09-19T04:46:14;17.30;;;12.65;;
80694;SDS011;70059;42.702;23.312;2023-09-19T04:48:32;13.73;;;11.05;;
80694;SDS011;70059;42.702;23.312;2023-09-19T04:50:59;13.20;;;11.88;;
80694;SDS011;70059;42.702;23.312;2023-09-19T04:53:28;13.68;;;11.77;;
80694;SDS011;70059;42.702;23.312;2023-09-19T04:55:53;13.80;;;12.40;;
80694;SDS011;70059;42.702;23.312;2023-09-19T04:58:20;14.13;;;12.02;;
80694;SDS011;70059;42.702;23.312;2023-09-19T05:00:47;18.00;;;13.90;;
80694;SDS011;70059;42.702;23.312;2023-09-19T05:03:12;12.45;;;11.15;;
80694;SDS011;70059;42.702;23.312;2023-09-19T05:05:38;17.55;;;11.85;;
80694;SDS011;70059;42.702;23.312;2023-09-19T05:08:06;14.60;;;11.18;;
80694;SDS011;70059;42.702;23.312;2023-09-19T05:10:35;13.10;;;11.25;;
80694;SDS011;70059;42.702;23.312;2023-09-19T05:13:06;15.90;;;12.10;;
80694;SDS011;70059;42.702;23.312;2023-09-19T05:15:37;12.88;;;11.55;;
80694;SDS011;70059;42.702;23.312;2023-09-19T05:18:04;17.30;;;12.73;;
80694;SDS011;70059;42.702;23.312;2023-09-19T05:20:31;17.38;;;12.80;;
80694;SDS011;70059;42.702;23.312;2023-09-19T05:25:36;13.52;;;12.13;;
80694;SDS011;70059;42.702;23.312;2023-09-19T05:28:07;14.27;;;11.65;;
80694;SDS011;70059;42.702;23.312;2023-09-19T05:30:40;16.42;;;12.57;;
80694;SDS011;70059;42.702;23.312;2023-09-19T05:33:08;19.35;;;13.10;;
80694;SDS011;70059;42.702;23.312;2023-09-19T05:35:34;18.70;;;12.68;;
80694;SDS011;70059;42.702;23.312;2023-09-19T05:38:04;18.85;;;12.32;;
80694;SDS011;70059;42.702;23.312;2023-09-19T05:40:33;13.13;;;10.90;;
80694;SDS011;70059;42.702;23.312;2023-09-19T05:43:03;12.82;;;11.52;;
80694;SDS011;70059;42.702;23.312;2023-09-19T05:45:30;13.13;;;11.32;;
80694;SDS011;70059;42.702;23.312;2023-09-19T05:48:05;17.02;;;12.30;;
80694;SDS011;70059;42.702;23.312;2023-09-19T05:50:36;15.35;;;12.30;;
80694;SDS011;70059;42.702;23.312;2023-09-19T05:53:03;16.45;;;11.55;;
80694;SDS011;70059;42.702;23.312;2023-09-19T05:55:30;13.77;;;11.13;;
80694;SDS011;70059;42.702;23.312;2023-09-19T05:57:57;13.90;;;10.05;;
80694;SDS011;70059;42.702;23.312;2023-09-19T06:00:24;17.33;;;11.85;;
80694;SDS011;70059;42.702;23.312;2023-09-19T06:02:58;20.38;;;14.20;;
80694;SDS011;70059;42.702;23.312;2023-09-19T06:06:32;13.00;;;10.48;;
80694;SDS011;70059;42.702;23.312;2023-09-19T06:09:14;16.15;;;12.70;;
80694;SDS011;70059;42.702;23.312;2023-09-19T06:11:44;13.10;;;11.73;;
80694;SDS011;70059;42.702;23.312;2023-09-19T06:14:11;12.20;;;11.05;;
80694;SDS011;70059;42.702;23.312;2023-09-19T06:16:36;11.82;;;10.73;;
80694;SDS011;70059;42.702;23.312;2023-09-19T06:19:10;12.00;;;10.90;;
80694;SDS011;70059;42.702;23.312;2023-09-19T06:21:37;12.15;;;10.95;;
80694;SDS011;70059;42.702;23.312;2023-09-19T06:24:03;22.75;;;12.07;;
80694;SDS011;70059;42.702;23.312;2023-09-19T06:26:29;15.85;;;10.98;;
80694;SDS011;70059;42.702;23.312;2023-09-19T06:28:55;15.57;;;11.30;;
80694;SDS011;70059;42.702;23.312;2023-09-19T06:31:24;13.80;;;11.15;;
80694;SDS011;70059;42.702;23.312;2023-09-19T06:33:51;17.55;;;10.90;;
80694;SDS011;70059;42.702;23.312;2023-09-19T06:36:17;13.45;;;11.13;;
80694;SDS011;70059;42.702;23.312;2023-09-19T06:38:44;14.73;;;11.00;;
80694;SDS011;70059;42.702;23.312;2023-09-19T06:41:10;12.55;;;11.35;;
80694;SDS011;70059;42.702;23.312;2023-09-19T06:43:36;12.80;;;11.52;;
80694;SDS011;70059;42.702;23.312;2023-09-19T06:46:02;11.80;;;10.60;;
80694;SDS011;70059;42.702;23.312;2023-09-19T06:48:29;12.88;;;11.02;;
80694;SDS011;70059;42.702;23.312;2023-09-19T06:50:55;13.82;;;10.90;;
80694;SDS011;70059;42.702;23.312;2023-09-19T06:56:34;15.93;;;12.30;;
80694;SDS011;70059;42.702;23.312;2023-09-19T06:59:44;14.77;;;11.52;;
80694;SDS011;70059;42.702;23.312;2023-09-19T07:02:12;11.38;;;10.38;;
80694;SDS011;70059;42.702;23.312;2023-09-19T07:04:54;11.77;;;10.57;;
80694;SDS011;70059;42.702;23.312;2023-09-19T07:08:14;17.73;;;12.70;;
80694;SDS011;70059;42.702;23.312;2023-09-19T07:13:47;11.38;;;10.18;;
80694;SDS011;70059;42.702;23.312;2023-09-19T07:16:13;12.40;;;11.20;;
80694;SDS011;70059;42.702;23.312;2023-09-19T07:18:52;11.80;;;10.70;;
80694;SDS011;70059;42.702;23.312;2023-09-19T07:21:20;11.30;;;10.30;;
80694;SDS011;70059;42.702;23.312;2023-09-19T07:23:49;11.45;;;10.38;;
80694;SDS011;70059;42.702;23.312;2023-09-19T07:26:16;10.52;;;9.55;;
80694;SDS011;70059;42.702;23.312;2023-09-19T07:28:42;11.43;;;10.18;;
80694;SDS011;70059;42.702;23.312;2023-09-19T07:31:07;12.35;;;10.82;;
80694;SDS011;70059;42.702;23.312;2023-09-19T07:33:35;12.02;;;10.20;;
80694;SDS011;70059;42.702;23.312;2023-09-19T07:36:05;11.50;;;10.35;;
80694;SDS011;70059;42.702;23.312;2023-09-19T07:38:35;11.93;;;10.75;;
80694;SDS011;70059;42.702;23.312;2023-09-19T07:41:01;11.20;;;10.30;;
80694;SDS011;70059;42.702;23.312;2023-09-19T07:43:28;11.70;;;10.38;;
80694;SDS011;70059;42.702;23.312;2023-09-19T07:45:53;11.90;;;10.70;;
80694;SDS011;70059;42.702;23.312;2023-09-19T07:48:19;12.57;;;11.00;;
80694;SDS011;70059;42.702;23.312;2023-09-19T07:50:45;11.05;;;9.93;;
80694;SDS011;70059;42.702;23.312;2023-09-19T07:53:11;12.02;;;10.30;;
80694;SDS011;70059;42.702;23.312;2023-09-19T07:58:06;12.10;;;10.75;;
80694;SDS011;70059;42.702;23.312;2023-09-19T08:00:32;14.30;;;11.15;;
80694;SDS011;70059;42.702;23.312;2023-09-19T08:03:00;12.32;;;11.20;;
80694;SDS011;70059;42.702;23.312;2023-09-19T08:05:26;13.35;;;10.88;;
80694;SDS011;70059;42.702;23.312;2023-09-19T08:07:51;12.60;;;11.40;;
80694;SDS011;70059;42.702;23.312;2023-09-19T08:10:19;12.73;;;11.52;;
80694;SDS011;70059;42.702;23.312;2023-09-19T08:12:46;12.60;;;11.40;;
80694;SDS011;70059;42.702;23.312;2023-09-19T08:15:17;12.35;;;11.05;;
80694;SDS011;70059;42.702;23.312;2023-09-19T08:17:47;12.30;;;11.20;;
80694;SDS011;70059;42.702;23.312;2023-09-19T08:20:13;13.35;;;12.05;;
80694;SDS011;70059;42.702;23.312;2023-09-19T08:22:51;12.98;;;11.77;;
80694;SDS011;70059;42.702;23.312;2023-09-19T08:25:19;12.40;;;11.30;;
80694;SDS011;70059;42.702;23.312;2023-09-19T08:30:16;16.27;;;12.13;;
80694;SDS011;70059;42.702;23.312;2023-09-19T08:32:49;12.55;;;11.35;;
80694;SDS011;70059;42.702;23.312;2023-09-19T08:35:15;12.50;;;11.35;;
80694;SDS011;70059;42.702;23.312;2023-09-19T08:37:45;13.13;;;11.82;;
80694;SDS011;70059;42.702;23.312;2023-09-19T08:42:50;15.95;;;12.68;;
80694;SDS011;70059;42.702;23.312;2023-09-19T08:45:23;13.88;;;11.88;;
80694;SDS011;70059;42.702;23.312;2023-09-19T08:50:55;12.80;;;11.50;;
80694;SDS011;70059;42.702;23.312;2023-09-19T08:53:26;13.73;;;11.65;;
80694;SDS011;70059;42.702;23.312;2023-09-19T08:56:03;12.95;;;11.68;;
80694;SDS011;70059;42.702;23.312;2023-09-19T08:58:33;13.00;;;11.90;;
80694;SDS011;70059;42.702;23.312;2023-09-19T09:01:05;13.82;;;12.48;;
80694;SDS011;70059;42.702;23.312;2023-09-19T09:03:32;12.40;;;11.35;;
80694;SDS011;70059;42.702;23.312;2023-09-19T09:06:00;12.32;;;11.13;;
80694;SDS011;70059;42.702;23.312;2023-09-19T09:08:27;12.43;;;11.15;;
80694;SDS011;70059;42.702;23.312;2023-09-19T09:11:06;12.50;;;11.32;;
80694;SDS011;70059;42.702;23.312;2023-09-19T09:13:39;12.75;;;11.68;;
80694;SDS011;70059;42.702;23.312;2023-09-19T09:16:06;12.85;;;10.70;;
80694;SDS011;70059;42.702;23.312;2023-09-19T09:18:39;11.90;;;10.90;;
80694;SDS011;70059;42.702;23.312;2023-09-19T09:21:05;12.93;;;11.63;;
80694;SDS011;70059;42.702;23.312;2023-09-19T09:23:31;12.95;;;11.75;;
80694;SDS011;70059;42.702;23.312;2023-09-19T09:26:00;12.93;;;11.60;;
80694;SDS011;70059;42.702;23.312;2023-09-19T09:28:32;13.60;;;12.25;;
80694;SDS011;70059;42.702;23.312;2023-09-19T09:31:01;14.30;;;12.52;;
80694;SDS011;70059;42.702;23.312;2023-09-19T09:33:56;14.73;;;11.75;;
80694;SDS011;70059;42.702;23.312;2023-09-19T09:36:35;13.18;;;11.77;;
80694;SDS011;70059;42.702;23.312;2023-09-19T09:39:03;14.25;;;11.15;;
80694;SDS011;70059;42.702;23.312;2023-09-19T09:41:49;13.48;;;12.20;;
80694;SDS011;70059;42.702;23.312;2023-09-19T09:44:16;15.00;;;11.80;;
80694;SDS011;70059;42.702;23.312;2023-09-19T09:46:46;12.40;;;11.32;;
80694;SDS011;70059;42.702;23.312;2023-09-19T09:49:26;13.30;;;12.13;;
80694;SDS011;70059;42.702;23.312;2023-09-19T09:52:05;14.30;;;12.80;;
80694;SDS011;70059;42.702;23.312;2023-09-19T09:54:32;13.25;;;11.95;;
80694;SDS011;70059;42.702;23.312;2023-09-19T09:57:11;14.00;;;12.60;;
80694;SDS011;70059;42.702;23.312;2023-09-19T09:59:46;15.57;;;11.45;;
80694;SDS011;70059;42.702;23.312;2023-09-19T10:02:19;12.25;;;11.10;;
80694;SDS011;70059;42.702;23.312;2023-09-19T10:07:42;13.60;;;12.27;;
80694;SDS011;70059;42.702;23.312;2023-09-19T10:10:14;12.95;;;11.70;;
80694;SDS011;70059;42.702;23.312;2023-09-19T10:15:30;12.05;;;10.95;;
80694;SDS011;70059;42.702;23.312;2023-09-19T10:18:01;12.40;;;11.20;;
80694;SDS011;70059;42.702;23.312;2023-09-19T10:20:47;12.60;;;11.20;;
80694;SDS011;70059;42.702;23.312;2023-09-19T10:23:19;16.88;;;12.32;;
80694;SDS011;70059;42.702;23.312;2023-09-19T10:25:51;13.65;;;12.35;;
80694;SDS011;70059;42.702;23.312;2023-09-19T10:28:19;19.50;;;11.48;;
80694;SDS011;70059;42.702;23.312;2023-09-19T10:30:53;12.65;;;11.38;;
80694;SDS011;70059;42.702;23.312;2023-09-19T10:33:24;12.50;;;11.30;;
80694;SDS011;70059;42.702;23.312;2023-09-19T10:35:54;12.80;;;11.60;;
80694;SDS011;70059;42.702;23.312;2023-09-19T10:38:25;13.25;;;11.95;;
80694;SDS011;70059;42.702;23.312;2023-09-19T10:40:53;14.13;;;11.95;;
80694;SDS011;70059;42.702;23.312;2023-09-19T10:43:28;13.60;;;12.27;;
80694;SDS011;70059;42.702;23.312;2023-09-19T10:45:58;13.50;;;11.85;;
80694;SDS011;70059;42.702;23.312;2023-09-19T10:48:29;13.10;;;11.73;;
80694;SDS011;70059;42.702;23.312;2023-09-19T10:53:44;12.88;;;11.57;;
80694;SDS011;70059;42.702;23.312;2023-09-19T10:56:11;15.07;;;12.48;;
80694;SDS011;70059;42.702;23.312;2023-09-19T10:58:53;13.20;;;11.98;;
80694;SDS011;70059;42.702;23.312;2023-09-19T11:01:55;12.77;;;11.43;;
80694;SDS011;70059;42.702;23.312;2023-09-19T11:07:10;11.90;;;10.68;;
80694;SDS011;70059;42.702;23.312;2023-09-19T11:15:06;12.95;;;11.73;;
80694;SDS011;70059;42.702;23.312;2023-09-19T11:30:42;13.52;;;12.18;;
80694;SDS011;70059;42.702;23.312;2023-09-19T11:46:14;13.02;;;11.77;;
80694;SDS011;70059;42.702;23.312;2023-09-19T11:48:47;13.80;;;12.35;;
80694;SDS011;70059;42.702;23.312;2023-09-19T11:51:15;13.55;;;12.20;;
80694;SDS011;70059;42.702;23.312;2023-09-19T11:53:51;12.10;;;11.10;;
80694;SDS011;70059;42.702;23.312;2023-09-19T11:56:27;12.20;;;10.77;;
80694;SDS011;70059;42.702;23.312;2023-09-19T11:58:54;13.30;;;12.00;;
80694;SDS011;70059;42.702;23.312;2023-09-19T12:01:23;19.08;;;14.15;;
80694;SDS011;70059;42.702;23.312;2023-09-19T12:03:53;13.98;;;12.75;;
80694;SDS011;70059;42.702;23.312;2023-09-19T12:06:25;17.30;;;12.20;;
80694;SDS011;70059;42.702;23.312;2023-09-19T12:08:54;13.98;;;11.98;;
80694;SDS011;70059;42.702;23.312;2023-09-19T12:11:40;12.85;;;11.65;;
80694;SDS011;70059;42.702;23.312;2023-09-19T12:14:09;13.38;;;11.95;;
80694;SDS011;70059;42.702;23.312;2023-09-19T12:16:36;13.32;;;12.10;;
80694;SDS011;70059;42.702;23.312;2023-09-19T12:19:19;13.43;;;11.70;;
80694;SDS011;70059;42.702;23.312;2023-09-19T12:21:53;13.77;;;12.60;;
80694;SDS011;70059;42.702;23.312;2023-09-19T12:24:34;13.65;;;12.40;;
80694;SDS011;70059;42.702;23.312;2023-09-19T12:27:04;13.80;;;12.70;;
80694;SDS011;70059;42.702;23.312;2023-09-19T12:29:31;12.27;;;11.30;;
80694;SDS011;70059;42.702;23.312;2023-09-19T12:32:06;13.77;;;12.30;;
80694;SDS011;70059;42.702;23.312;2023-09-19T12:34:32;14.18;;;12.88;;
80694;SDS011;70059;42.702;23.312;2023-09-19T12:39:49;12.85;;;11.63;;
80694;SDS011;70059;42.702;23.312;2023-09-19T12:42:23;14.48;;;13.27;;
80694;SDS011;70059;42.702;23.312;2023-09-19T12:44:56;13.48;;;12.27;;
80694;SDS011;70059;42.702;23.312;2023-09-19T12:47:25;13.60;;;12.35;;
80694;SDS011;70059;42.702;23.312;2023-09-19T12:52:47;14.00;;;12.50;;
80694;SDS011;70059;42.702;23.312;2023-09-19T12:55:28;12.80;;;11.52;;
80694;SDS011;70059;42.702;23.312;2023-09-19T12:58:13;12.80;;;11.70;;
80694;SDS011;70059;42.702;23.312;2023-09-19T13:01:13;13.00;;;11.90;;
80694;SDS011;70059;42.702;23.312;2023-09-19T13:06:49;13.32;;;12.00;;
80694;SDS011;70059;42.702;23.312;2023-09-19T13:10:04;12.65;;;11.35;;
80694;SDS011;70059;42.702;23.312;2023-09-19T13:12:36;13.40;;;11.65;;
80694;SDS011;70059;42.702;23.312;2023-09-19T13:15:20;13.68;;;12.15;;
80694;SDS011;70059;42.702;23.312;2023-09-19T13:17:59;14.38;;;13.07;;
80694;SDS011;70059;42.702;23.312;2023-09-19T13:21:07;13.35;;;12.23;;
80694;SDS011;70059;42.702;23.312;2023-09-19T13:23:41;13.50;;;12.50;;
80694;SDS011;70059;42.702;23.312;2023-09-19T13:26:08;13.63;;;12.27;;
80694;SDS011;70059;42.702;23.312;2023-09-19T13:28:35;13.52;;;12.43;;
80694;SDS011;70059;42.702;23.312;2023-09-19T13:31:02;13.30;;;12.10;;
80694;SDS011;70059;42.702;23.312;2023-09-19T13:33:31;13.43;;;12.15;;
80694;SDS011;70059;42.702;23.312;2023-09-19T13:35:58;14.40;;;13.10;;
80694;SDS011;70059;42.702;23.312;2023-09-19T13:38:24;12.65;;;11.55;;
80694;SDS011;70059;42.702;23.312;2023-09-19T13:40:50;15.52;;;12.73;;
80694;SDS011;70059;42.702;23.312;2023-09-19T13:43:17;13.85;;;12.55;;
80694;SDS011;70059;42.702;23.312;2023-09-19T13:45:43;14.85;;;13.20;;
80694;SDS011;70059;42.702;23.312;2023-09-19T13:48:08;15.35;;;12.38;;
80694;SDS011;70059;42.702;23.312;2023-09-19T13:50:37;15.05;;;13.35;;
80694;SDS011;70059;42.702;23.312;2023-09-19T13:53:07;14.85;;;12.27;;
80694;SDS011;70059;42.702;23.312;2023-09-19T13:55:33;18.08;;;14.38;;
80694;SDS011;70059;42.702;23.312;2023-09-19T13:57:59;16.83;;;14.70;;
80694;SDS011;70059;42.702;23.312;2023-09-19T14:00:26;13.18;;;11.98;;
80694;SDS011;70059;42.702;23.312;2023-09-19T14:02:52;13.68;;;12.52;;
80694;SDS011;70059;42.702;23.312;2023-09-19T14:05:18;14.85;;;13.65;;
80694;SDS011;70059;42.702;23.312;2023-09-19T14:07:45;13.65;;;12.45;;
80694;SDS011;70059;42.702;23.312;2023-09-19T14:10:11;14.30;;;13.00;;
80694;SDS011;70059;42.702;23.312;2023-09-19T14:12:37;13.95;;;12.55;;
80694;SDS011;70059;42.702;23.312;2023-09-19T14:15:06;14.00;;;12.55;;
80694;SDS011;70059;42.702;23.312;2023-09-19T14:17:35;13.73;;;12.48;;
80694;SDS011;70059;42.702;23.312;2023-09-19T14:20:02;13.77;;;12.43;;
80694;SDS011;70059;42.702;23.312;2023-09-19T14:22:28;14.57;;;13.38;;
80694;SDS011;70059;42.702;23.312;2023-09-19T14:24:55;14.27;;;12.65;;
80694;SDS011;70059;42.702;23.312;2023-09-19T14:27:21;13.35;;;12.32;;
80694;SDS011;70059;42.702;23.312;2023-09-19T14:29:47;13.20;;;12.07;;
80694;SDS011;70059;42.702;23.312;2023-09-19T14:32:16;14.57;;;13.10;;
80694;SDS011;70059;42.702;23.312;2023-09-19T14:34:43;14.50;;;13.05;;
80694;SDS011;70059;42.702;23.312;2023-09-19T14:37:09;13.20;;;11.88;;
80694;SDS011;70059;42.702;23.312;2023-09-19T14:39:36;13.68;;;12.50;;
80694;SDS011;70059;42.702;23.312;2023-09-19T14:42:05;16.52;;;13.60;;
80694;SDS011;70059;42.702;23.312;2023-09-19T14:44:31;16.13;;;14.52;;
80694;SDS011;70059;42.702;23.312;2023-09-19T14:47:00;19.35;;;14.60;;
80694;SDS011;70059;42.702;23.312;2023-09-19T14:49:35;16.08;;;14.23;;
80694;SDS011;70059;42.702;23.312;2023-09-19T14:52:08;16.13;;;14.48;;
80694;SDS011;70059;42.702;23.312;2023-09-19T14:54:34;15.20;;;13.80;;
80694;SDS011;70059;42.702;23.312;2023-09-19T14:57:03;16.38;;;14.90;;
80694;SDS011;70059;42.702;23.312;2023-09-19T14:59:32;14.43;;;13.05;;
80694;SDS011;70059;42.702;23.312;2023-09-19T15:02:01;15.00;;;13.48;;
80694;SDS011;70059;42.702;23.312;2023-09-19T15:04:28;14.63;;;13.30;;
80694;SDS011;70059;42.702;23.312;2023-09-19T15:06:54;13.65;;;12.32;;
80694;SDS011;70059;42.702;23.312;2023-09-19T15:09:21;15.15;;;13.77;;
80694;SDS011;70059;42.702;23.312;2023-09-19T15:11:51;16.55;;;14.40;;
80694;SDS011;70059;42.702;23.312;2023-09-19T15:14:18;13.88;;;12.48;;
80694;SDS011;70059;42.702;23.312;2023-09-19T15:16:43;14.30;;;13.10;;
80694;SDS011;70059;42.702;23.312;2023-09-19T15:19:09;14.43;;;13.23;;
80694;SDS011;70059;42.702;23.312;2023-09-19T15:21:35;15.30;;;14.00;;
80694;SDS011;70059;42.702;23.312;2023-09-19T15:24:02;16.10;;;14.50;;
80694;SDS011;70059;42.702;23.312;2023-09-19T15:26:28;13.93;;;12.82;;
80694;SDS011;70059;42.702;23.312;2023-09-19T15:28:58;15.15;;;13.43;;
80694;SDS011;70059;42.702;23.312;2023-09-19T15:31:34;14.45;;;12.95;;
80694;SDS011;70059;42.702;23.312;2023-09-19T15:34:03;16.80;;;13.35;;
80694;SDS011;70059;42.702;23.312;2023-09-19T15:36:32;14.65;;;13.25;;
80694;SDS011;70059;42.702;23.312;2023-09-19T15:39:05;14.45;;;12.40;;
80694;SDS011;70059;42.702;23.312;2023-09-19T15:41:33;13.73;;;12.32;;
80694;SDS011;70059;42.702;23.312;2023-09-19T15:44:02;14.43;;;13.02;;
80694;SDS011;70059;42.702;23.312;2023-09-19T15:46:29;13.82;;;12.43;;